createdAt,value
2018-11-05T00:02:07.831Z,19.27
2018-11-05T00:05:11.922Z,19.33
2018-11-05T00:08:16.026Z,18.27
2018-11-05T00:11:20.122Z,20.57
2018-11-05T00:14:24.219Z,21.13
2018-11-05T00:17:28.349Z,17.10
2018-11-05T00:20:32.450Z,18.57
2018-11-05T00:23:36.552Z,21.27
2018-11-05T00:26:40.646Z,21.13
2018-11-05T00:29:44.738Z,22.60
2018-11-05T00:32:48.830Z,21.47
2018-11-05T00:35:52.921Z,21.53
2018-11-05T00:38:57.014Z,20.00
2018-11-05T00:42:01.113Z,19.13
2018-11-05T00:45:06.594Z,22.40
2018-11-05T00:48:10.692Z,26.20
2018-11-05T00:51:14.790Z,17.70
2018-11-05T00:54:19.712Z,19.00
2018-11-05T00:57:23.806Z,25.40
2018-11-05T01:00:27.953Z,19.40
2018-11-05T01:03:32.058Z,20.23
2018-11-05T01:06:36.153Z,22.70
2018-11-05T01:09:40.259Z,20.33
2018-11-05T01:12:44.370Z,20.10
2018-11-05T01:15:48.469Z,19.27
2018-11-05T01:18:52.571Z,16.83
2018-11-05T01:21:56.680Z,18.10
2018-11-05T01:25:00.847Z,20.60
2018-11-05T01:28:05.126Z,21.73
2018-11-05T01:31:09.210Z,21.20
2018-11-05T01:34:13.304Z,22.47
2018-11-05T01:37:17.515Z,22.73
2018-11-05T01:40:21.567Z,19.20
2018-11-05T01:43:25.721Z,19.13
2018-11-05T01:46:29.874Z,19.03
2018-11-05T01:49:34.074Z,18.83
2018-11-05T01:52:38.230Z,20.17
2018-11-05T01:55:42.383Z,16.03
2018-11-05T01:58:46.533Z,19.60
2018-11-05T02:01:50.678Z,17.60
2018-11-05T02:04:54.826Z,20.10
2018-11-05T02:07:58.978Z,18.10
2018-11-05T02:11:03.134Z,18.37
2018-11-05T02:14:07.278Z,21.57
2018-11-05T02:17:11.462Z,17.97
2018-11-05T02:20:16.530Z,17.17
2018-11-05T02:23:20.693Z,20.47
2018-11-05T02:26:24.798Z,16.33
2018-11-05T02:29:28.912Z,17.90
2018-11-05T02:32:33.037Z,17.57
2018-11-05T02:35:37.150Z,22.50
2018-11-05T02:38:41.274Z,20.27
2018-11-05T02:41:45.372Z,16.03
2018-11-05T02:44:49.477Z,16.20
2018-11-05T02:47:53.594Z,16.43
2018-11-05T02:50:57.701Z,15.30
2018-11-05T02:54:01.915Z,14.63
2018-11-05T02:57:06.332Z,14.67
2018-11-05T03:00:13.532Z,16.93
2018-11-05T03:03:17.816Z,20.57
2018-11-05T03:06:21.818Z,19.00
2018-11-05T03:09:25.985Z,17.93
2018-11-05T03:12:30.126Z,19.13
2018-11-05T03:15:34.269Z,18.13
2018-11-05T03:18:38.417Z,16.97
2018-11-05T03:21:42.566Z,18.87
2018-11-05T03:24:46.741Z,20.00
2018-11-05T03:27:50.926Z,18.23
2018-11-05T03:30:55.059Z,17.17
2018-11-05T03:33:59.218Z,17.47
2018-11-05T03:37:03.539Z,17.73
2018-11-05T03:40:08.041Z,18.60
2018-11-05T03:43:12.198Z,16.57
2018-11-05T03:46:16.342Z,17.60
2018-11-05T03:49:20.562Z,18.30
2018-11-05T03:52:24.664Z,16.47
2018-11-05T03:55:28.799Z,16.03
2018-11-05T03:58:32.908Z,16.30
2018-11-05T04:01:37.016Z,19.37
2018-11-05T04:04:41.161Z,16.90
2018-11-05T04:07:45.280Z,18.20
2018-11-05T04:10:49.394Z,17.53
2018-11-05T04:13:53.508Z,18.43
2018-11-05T04:16:57.614Z,18.10
2018-11-05T04:20:01.719Z,18.57
2018-11-05T04:23:06.003Z,15.57
2018-11-05T04:26:10.106Z,16.07
2018-11-05T04:29:14.227Z,18.50
2018-11-05T04:32:18.438Z,18.57
2018-11-05T04:35:22.555Z,18.43
2018-11-05T04:38:26.654Z,17.33
2018-11-05T04:41:30.757Z,15.73
2018-11-05T04:44:34.865Z,14.73
2018-11-05T04:47:39.030Z,16.43
2018-11-05T04:50:43.147Z,15.50
2018-11-05T04:53:47.310Z,16.90
2018-11-05T04:56:51.451Z,18.00
2018-11-05T04:59:55.654Z,16.63
2018-11-05T05:02:59.802Z,18.13
2018-11-05T05:06:03.955Z,17.03
2018-11-05T05:09:11.213Z,16.90
2018-11-05T05:12:15.358Z,16.40
2018-11-05T05:15:19.499Z,16.23
2018-11-05T05:18:23.655Z,16.20
2018-11-05T05:21:27.830Z,15.40
2018-11-05T05:24:31.978Z,14.67
2018-11-05T05:27:36.126Z,18.10
2018-11-05T05:30:40.282Z,14.83
2018-11-05T05:33:44.593Z,16.07
2018-11-05T05:36:48.665Z,16.30
2018-11-05T05:39:52.814Z,15.93
2018-11-05T05:42:56.954Z,17.80
2018-11-05T05:46:01.110Z,16.17
2018-11-05T05:49:05.632Z,16.07
2018-11-05T05:52:09.782Z,17.30
2018-11-05T05:55:13.945Z,17.97
2018-11-05T05:58:18.093Z,17.47
2018-11-05T06:01:22.263Z,16.20
2018-11-05T06:04:26.449Z,15.37
2018-11-05T06:07:30.630Z,14.57
2018-11-05T06:10:34.786Z,18.13
2018-11-05T06:13:38.931Z,16.10
2018-11-05T06:16:43.075Z,16.63
2018-11-05T06:19:47.230Z,16.83
2018-11-05T06:22:51.419Z,15.20
2018-11-05T06:25:55.573Z,19.97
2018-11-05T06:28:59.767Z,19.00
2018-11-05T06:32:03.922Z,16.73
2018-11-05T06:35:08.842Z,18.63
2018-11-05T06:38:12.990Z,17.53
2018-11-05T06:41:17.192Z,21.40
2018-11-05T06:44:21.405Z,29.93
2018-11-05T06:47:25.458Z,24.53
2018-11-05T06:50:29.605Z,24.47
2018-11-05T06:53:33.764Z,47.83
2018-11-05T06:56:37.919Z,32.27
2018-11-05T06:59:42.070Z,34.67
2018-11-05T07:02:46.386Z,36.40
2018-11-05T07:05:50.574Z,31.93
2018-11-05T07:08:54.676Z,36.73
2018-11-05T07:11:58.818Z,57.97
2018-11-05T07:15:03.082Z,47.57
2018-11-05T07:18:07.242Z,187.77
2018-11-05T07:21:11.372Z,70.27
2018-11-05T07:24:15.506Z,53.60
2018-11-05T07:27:19.762Z,144.37
2018-11-05T07:30:24.886Z,85.83
2018-11-05T07:33:29.107Z,95.57
2018-11-05T07:36:33.177Z,171.40
2018-11-05T07:39:37.327Z,93.13
2018-11-05T07:42:41.566Z,157.17
2018-11-05T07:45:45.707Z,70.30
2018-11-05T07:48:49.839Z,53.40
2018-11-05T07:51:53.994Z,32.73
2018-11-05T07:54:58.320Z,41.57
2018-11-05T07:58:02.462Z,85.00
2018-11-05T08:01:07.027Z,120.93
2018-11-05T08:04:11.187Z,29.90
2018-11-05T08:07:15.335Z,29.83
2018-11-05T08:10:19.495Z,147.97
2018-11-05T08:13:23.638Z,95.37
2018-11-05T08:16:27.786Z,27.13
2018-11-05T08:19:31.943Z,25.60
2018-11-05T08:22:36.077Z,41.53
2018-11-05T08:25:40.226Z,37.63
2018-11-05T08:28:44.482Z,37.87
2018-11-05T08:31:48.637Z,27.30
2018-11-05T08:34:52.890Z,24.33
2018-11-05T08:37:57.046Z,26.60
2018-11-05T08:41:01.195Z,24.73
2018-11-05T08:44:05.933Z,27.00
2018-11-05T08:47:10.118Z,23.83
2018-11-05T08:50:15.568Z,22.33
2018-11-05T08:53:19.662Z,22.33
2018-11-05T08:56:23.819Z,19.83
2018-11-05T08:59:27.962Z,22.67
2018-11-05T09:02:32.118Z,17.63
2018-11-05T09:05:36.276Z,21.27
2018-11-05T09:08:40.428Z,25.50
2018-11-05T09:11:44.696Z,21.00
2018-11-05T09:14:48.743Z,25.57
2018-11-05T09:17:53.137Z,27.57
2018-11-05T09:20:57.342Z,29.70
2018-11-05T09:24:01.445Z,25.37
2018-11-05T09:27:06.014Z,24.17
2018-11-05T09:30:14.425Z,23.73
2018-11-05T09:33:18.574Z,28.83
2018-11-05T09:36:22.710Z,24.07
2018-11-05T09:39:26.886Z,24.87
2018-11-05T09:42:31.061Z,26.40
2018-11-05T09:45:35.306Z,26.07
2018-11-05T09:48:39.461Z,27.00
2018-11-05T09:51:43.627Z,32.40
2018-11-05T09:54:47.777Z,26.07
2018-11-05T09:57:51.926Z,25.97
2018-11-05T10:00:56.094Z,21.53
2018-11-05T10:04:00.294Z,23.83
2018-11-05T10:07:05.159Z,24.37
2018-11-05T10:10:10.607Z,26.50
2018-11-05T10:13:14.766Z,23.57
2018-11-05T10:16:18.985Z,24.60
2018-11-05T10:19:23.079Z,18.93
2018-11-05T10:22:27.242Z,22.33
2018-11-05T10:25:31.402Z,17.57
2018-11-05T10:28:35.558Z,19.00
2018-11-05T10:31:39.751Z,16.93
2018-11-05T10:34:43.879Z,16.33
2018-11-05T10:37:48.042Z,16.73
2018-11-05T10:40:52.206Z,18.87
2018-11-05T10:43:56.367Z,20.87
2018-11-05T10:47:00.521Z,20.60
2018-11-05T10:50:04.738Z,19.03
2018-11-05T10:53:08.854Z,25.27
2018-11-05T10:56:12.971Z,20.80
2018-11-05T10:59:17.090Z,21.07
2018-11-05T11:02:26.490Z,16.83
2018-11-05T11:05:31.661Z,14.40
2018-11-05T11:08:35.764Z,11.23
2018-11-05T11:11:39.870Z,17.53
2018-11-05T11:14:43.993Z,15.07
2018-11-05T11:17:48.090Z,13.57
2018-11-05T11:20:52.212Z,13.53
2018-11-05T11:23:56.322Z,14.03
2018-11-05T11:27:00.438Z,14.13
2018-11-05T11:30:04.541Z,9.03
2018-11-05T11:33:08.664Z,10.90
2018-11-05T11:36:12.776Z,9.20
2018-11-05T11:39:16.882Z,10.87
2018-11-05T11:42:21.097Z,9.47
2018-11-05T11:45:25.473Z,9.87
2018-11-05T11:48:29.577Z,10.63
2018-11-05T11:51:33.694Z,10.90
2018-11-05T11:54:37.837Z,10.77
2018-11-05T11:57:42.219Z,12.70
2018-11-05T12:00:46.329Z,12.70
2018-11-05T12:03:50.584Z,12.27
2018-11-05T12:06:54.656Z,12.40
2018-11-05T12:09:58.774Z,11.10
2018-11-05T12:13:02.892Z,10.30
2018-11-05T12:16:07.051Z,13.93
2018-11-05T12:19:11.138Z,10.47
2018-11-05T12:22:15.269Z,12.83
2018-11-05T12:25:19.379Z,14.63
2018-11-05T12:28:23.487Z,11.40
2018-11-05T12:31:27.585Z,20.07
2018-11-05T12:34:31.717Z,15.70
2018-11-05T12:37:35.831Z,11.70
2018-11-05T12:40:39.950Z,12.67
2018-11-05T12:43:44.062Z,11.43
2018-11-05T12:46:48.204Z,13.43
2018-11-05T12:49:52.320Z,11.57
2018-11-05T12:52:56.446Z,13.87
2018-11-05T12:56:00.556Z,12.55
2018-11-05T12:59:04.766Z,14.93
2018-11-05T13:02:08.874Z,13.23
2018-11-05T13:05:13.826Z,15.63
2018-11-05T13:08:17.942Z,10.40
2018-11-05T13:11:22.074Z,14.73
2018-11-05T13:14:26.178Z,14.17
2018-11-05T13:17:30.286Z,8.97
2018-11-05T13:20:34.394Z,10.30
2018-11-05T13:23:42.625Z,8.95
2018-11-05T13:26:46.758Z,10.65
2018-11-05T13:29:50.875Z,8.88
2018-11-05T13:32:54.981Z,11.83
2018-11-05T13:35:59.075Z,8.85
2018-11-05T13:39:03.195Z,11.18
2018-11-05T13:42:07.366Z,9.80
2018-11-05T13:45:12.676Z,12.47
2018-11-05T13:48:16.994Z,14.05
2018-11-05T13:51:20.794Z,12.30
2018-11-05T13:54:24.954Z,12.35
2018-11-05T13:57:29.054Z,11.50
2018-11-05T14:00:33.143Z,11.10
2018-11-05T14:03:37.250Z,9.95
2018-11-05T14:06:41.383Z,13.15
2018-11-05T14:09:46.637Z,11.63
2018-11-05T14:12:51.173Z,13.50
2018-11-05T14:15:55.218Z,13.40
2018-11-05T14:18:59.326Z,11.47
2018-11-05T14:22:03.434Z,10.37
2018-11-05T14:25:10.030Z,11.40
2018-11-05T14:28:14.493Z,10.97
2018-11-05T14:31:18.528Z,9.80
2018-11-05T14:34:22.687Z,12.90
2018-11-05T14:37:26.810Z,9.10
2018-11-05T14:40:30.971Z,13.07
2018-11-05T14:43:35.219Z,12.63
2018-11-05T14:46:39.299Z,11.17
2018-11-05T14:49:43.449Z,10.77
2018-11-05T14:52:47.633Z,9.40
2018-11-05T14:55:51.754Z,14.13
2018-11-05T14:58:56.274Z,12.33
2018-11-05T15:02:05.629Z,10.67
2018-11-05T15:05:10.957Z,9.73
2018-11-05T15:08:15.118Z,7.30
2018-11-05T15:11:19.255Z,7.77
2018-11-05T15:14:23.410Z,8.17
2018-11-05T15:17:27.559Z,10.03
2018-11-05T15:20:31.793Z,9.07
2018-11-05T15:23:35.888Z,7.70
2018-11-05T15:26:40.066Z,12.43
2018-11-05T15:29:44.192Z,6.80
2018-11-05T15:32:48.406Z,9.47
2018-11-05T15:35:52.508Z,18.90
2018-11-05T15:38:56.659Z,8.47
2018-11-05T15:42:00.818Z,10.87
2018-11-05T15:45:06.322Z,7.73
2018-11-05T15:48:10.472Z,9.70
2018-11-05T15:51:14.761Z,10.43
2018-11-05T15:54:18.882Z,8.97
2018-11-05T15:57:22.903Z,8.30
2018-11-05T16:00:27.061Z,9.70
2018-11-05T16:03:31.228Z,8.83
2018-11-05T16:06:35.390Z,10.57
2018-11-05T16:09:40.408Z,12.03
2018-11-05T16:12:44.562Z,9.83
2018-11-05T16:15:48.713Z,10.33
2018-11-05T16:18:52.866Z,12.17
2018-11-05T16:21:57.018Z,11.43
2018-11-05T16:25:01.466Z,13.73
2018-11-05T16:28:06.522Z,12.40
2018-11-05T16:31:10.661Z,12.93
2018-11-05T16:34:14.949Z,12.20
2018-11-05T16:37:19.047Z,11.90
2018-11-05T16:40:23.163Z,14.00
2018-11-05T16:43:27.279Z,11.90
2018-11-05T16:46:31.386Z,11.03
2018-11-05T16:49:35.506Z,18.90
2018-11-05T16:52:39.615Z,23.53
2018-11-05T16:55:43.742Z,15.97
2018-11-05T16:58:47.854Z,15.93
2018-11-05T17:01:52.372Z,15.17
2018-11-05T17:04:56.086Z,16.53
2018-11-05T17:08:00.291Z,13.90
2018-11-05T17:11:04.447Z,14.80
2018-11-05T17:14:08.598Z,19.63
2018-11-05T17:17:12.815Z,16.27
2018-11-05T17:20:18.124Z,18.03
2018-11-05T17:23:22.271Z,16.00
2018-11-05T17:26:26.491Z,19.17
2018-11-05T17:29:30.530Z,18.17
2018-11-05T17:32:34.690Z,16.43
2018-11-05T17:35:38.843Z,19.27
2018-11-05T17:38:43.068Z,18.63
2018-11-05T17:41:47.247Z,19.83
2018-11-05T17:44:51.407Z,17.43
2018-11-05T17:47:55.569Z,17.83
2018-11-05T17:50:59.845Z,17.70
2018-11-05T17:54:03.982Z,16.63
2018-11-05T17:57:08.293Z,17.23
2018-11-05T18:00:14.953Z,15.93
2018-11-05T18:03:19.088Z,18.63
2018-11-05T18:06:23.246Z,18.20
2018-11-05T18:09:27.442Z,17.63
2018-11-05T18:12:31.564Z,20.73
2018-11-05T18:15:35.785Z,17.43
2018-11-05T18:18:39.886Z,15.90
2018-11-05T18:21:44.030Z,16.87
2018-11-05T18:24:48.256Z,16.00
2018-11-05T18:27:52.404Z,21.10
2018-11-05T18:30:56.566Z,13.67
2018-11-05T18:34:00.659Z,15.80
2018-11-05T18:37:04.759Z,15.67
2018-11-05T18:40:11.390Z,16.47
2018-11-05T18:43:15.500Z,18.90
2018-11-05T18:46:19.611Z,14.90
2018-11-05T18:49:23.703Z,17.43
2018-11-05T18:52:27.806Z,19.80
2018-11-05T18:55:31.918Z,14.83
2018-11-05T18:58:36.022Z,18.43
2018-11-05T19:01:40.143Z,15.43
2018-11-05T19:04:44.290Z,17.60
2018-11-05T19:07:48.625Z,18.80
2018-11-05T19:10:52.743Z,20.13
2018-11-05T19:13:57.171Z,15.20
2018-11-05T19:17:01.282Z,15.40
2018-11-05T19:20:06.678Z,15.47
2018-11-05T19:23:10.875Z,13.33
2018-11-05T19:26:14.902Z,20.70
2018-11-05T19:29:19.009Z,17.03
2018-11-05T19:32:23.127Z,16.47
2018-11-05T19:35:27.234Z,16.27
2018-11-05T19:38:31.334Z,16.93
2018-11-05T19:41:35.475Z,15.53
2018-11-05T19:44:39.659Z,19.40
2018-11-05T19:47:43.798Z,15.10
2018-11-05T19:50:47.931Z,24.37
2018-11-05T19:53:52.055Z,22.10
2018-11-05T19:56:56.167Z,18.33
2018-11-05T20:00:00.292Z,16.27
2018-11-05T20:03:04.423Z,18.47
2018-11-05T20:06:08.592Z,17.70
2018-11-05T20:09:12.640Z,17.10
2018-11-05T20:12:16.771Z,21.40
2018-11-05T20:15:20.940Z,18.57
2018-11-05T20:18:25.036Z,21.20
2018-11-05T20:21:29.108Z,14.97
2018-11-05T20:24:33.223Z,18.00
2018-11-05T20:27:38.226Z,17.83
2018-11-05T20:30:42.331Z,18.70
2018-11-05T20:33:46.710Z,18.33
2018-11-05T20:36:50.678Z,21.27
2018-11-05T20:39:54.939Z,21.50
2018-11-05T20:42:58.975Z,23.30
2018-11-05T20:46:03.110Z,17.90
2018-11-05T20:49:07.263Z,16.90
2018-11-05T20:52:11.416Z,21.00
2018-11-05T20:55:16.606Z,18.17
2018-11-05T20:58:20.807Z,17.27
2018-11-05T21:01:24.967Z,15.20
2018-11-05T21:04:29.123Z,17.80
2018-11-05T21:07:33.278Z,14.30
2018-11-05T21:10:37.422Z,18.13
2018-11-05T21:13:41.801Z,20.00
2018-11-05T21:16:45.986Z,15.97
2018-11-05T21:19:50.091Z,17.50
2018-11-05T21:22:54.403Z,14.47
2018-11-05T21:25:58.385Z,14.07
2018-11-05T21:29:02.561Z,18.63
2018-11-05T21:32:06.687Z,17.47
2018-11-05T21:35:13.200Z,13.93
2018-11-05T21:38:17.301Z,19.60
2018-11-05T21:41:21.405Z,15.73
2018-11-05T21:44:25.525Z,17.07
2018-11-05T21:47:29.743Z,16.20
2018-11-05T21:50:33.772Z,18.87
2018-11-05T21:53:37.885Z,15.20
2018-11-05T21:56:41.998Z,17.87
2018-11-05T21:59:46.114Z,16.33
2018-11-05T22:02:55.515Z,17.47
2018-11-05T22:05:59.729Z,18.47
2018-11-05T22:09:03.992Z,14.47
2018-11-05T22:12:08.090Z,16.20
2018-11-05T22:15:12.219Z,17.57
2018-11-05T22:18:17.458Z,18.17
2018-11-05T22:21:21.575Z,17.73
2018-11-05T22:24:25.701Z,16.67
2018-11-05T22:27:29.967Z,16.37
2018-11-05T22:30:34.002Z,16.90
2018-11-05T22:33:38.105Z,16.17
2018-11-05T22:36:42.223Z,13.60
2018-11-05T22:39:46.318Z,10.87
2018-11-05T22:42:50.417Z,16.20
2018-11-05T22:45:54.522Z,12.10
2018-11-05T22:48:58.622Z,13.27
2018-11-05T22:52:02.738Z,14.17
2018-11-05T22:55:07.272Z,19.03
2018-11-05T22:58:11.384Z,14.00
2018-11-05T23:01:20.834Z,10.83
2018-11-05T23:04:24.955Z,11.63
2018-11-05T23:07:29.071Z,12.37
2018-11-05T23:10:33.177Z,15.23
2018-11-05T23:13:37.293Z,12.67
2018-11-05T23:16:41.413Z,14.53
2018-11-05T23:19:45.513Z,15.73
2018-11-05T23:22:49.629Z,14.53
2018-11-05T23:25:53.744Z,16.80
2018-11-05T23:28:57.862Z,14.60
2018-11-05T23:32:01.992Z,17.00
2018-11-05T23:35:06.724Z,16.87
2018-11-05T23:38:10.832Z,15.50
2018-11-05T23:41:14.955Z,18.00
2018-11-05T23:44:19.077Z,17.63
2018-11-05T23:47:27.604Z,17.67
2018-11-05T23:50:31.702Z,16.60
2018-11-05T23:53:35.813Z,16.57
2018-11-05T23:56:39.921Z,20.80
2018-11-05T23:59:44.037Z,18.00
